sensor_id;sensor_type;location;lat;lon;timestamp;P1;durP1;ratioP1;P2;durP2;ratioP2
49910;SDS011;35803;53.096;5.844;2024-03-17T00:00:50;3.65;;;1.80;;
49910;SDS011;35803;53.096;5.844;2024-03-17T00:03:38;4.28;;;1.80;;
49910;SDS011;35803;53.096;5.844;2024-03-17T00:06:24;4.85;;;2.00;;
49910;SDS011;35803;53.096;5.844;2024-03-17T00:09:10;4.72;;;1.85;;
49910;SDS011;35803;53.096;5.844;2024-03-17T00:11:55;3.17;;;1.45;;
49910;SDS011;35803;53.096;5.844;2024-03-17T00:14:41;7.03;;;1.98;;
49910;SDS011;35803;53.096;5.844;2024-03-17T00:17:28;2.58;;;1.48;;
49910;SDS011;35803;53.096;5.844;2024-03-17T00:20:13;5.38;;;1.60;;
49910;SDS011;35803;53.096;5.844;2024-03-17T00:23:04;2.92;;;1.50;;
49910;SDS011;35803;53.096;5.844;2024-03-17T00:25:54;6.72;;;2.10;;
49910;SDS011;35803;53.096;5.844;2024-03-17T00:28:40;2.47;;;1.23;;
49910;SDS011;35803;53.096;5.844;2024-03-17T00:31:26;3.88;;;1.55;;
49910;SDS011;35803;53.096;5.844;2024-03-17T00:34:12;3.33;;;1.58;;
49910;SDS011;35803;53.096;5.844;2024-03-17T00:36:58;2.00;;;1.63;;
49910;SDS011;35803;53.096;5.844;2024-03-17T00:39:44;4.40;;;1.90;;
49910;SDS011;35803;53.096;5.844;2024-03-17T00:42:30;2.20;;;1.63;;
49910;SDS011;35803;53.096;5.844;2024-03-17T00:45:16;4.40;;;1.73;;
49910;SDS011;35803;53.096;5.844;2024-03-17T00:48:01;3.90;;;1.40;;
49910;SDS011;35803;53.096;5.844;2024-03-17T00:50:54;2.70;;;1.55;;
49910;SDS011;35803;53.096;5.844;2024-03-17T00:53:46;3.53;;;1.80;;
49910;SDS011;35803;53.096;5.844;2024-03-17T00:56:32;3.50;;;1.70;;
49910;SDS011;35803;53.096;5.844;2024-03-17T00:59:20;2.67;;;1.80;;
49910;SDS011;35803;53.096;5.844;2024-03-17T01:02:06;2.50;;;1.67;;
49910;SDS011;35803;53.096;5.844;2024-03-17T01:04:51;2.95;;;1.60;;
49910;SDS011;35803;53.096;5.844;2024-03-17T01:07:37;2.42;;;1.58;;
49910;SDS011;35803;53.096;5.844;2024-03-17T01:10:23;4.20;;;1.70;;
49910;SDS011;35803;53.096;5.844;2024-03-17T01:13:09;3.13;;;1.90;;
49910;SDS011;35803;53.096;5.844;2024-03-17T01:15:55;3.90;;;1.77;;
49910;SDS011;35803;53.096;5.844;2024-03-17T01:18:41;6.15;;;2.00;;
49910;SDS011;35803;53.096;5.844;2024-03-17T01:21:28;4.78;;;1.65;;
49910;SDS011;35803;53.096;5.844;2024-03-17T01:24:14;3.90;;;1.60;;
49910;SDS011;35803;53.096;5.844;2024-03-17T01:27:00;5.90;;;2.17;;
49910;SDS011;35803;53.096;5.844;2024-03-17T01:29:46;2.30;;;1.80;;
49910;SDS011;35803;53.096;5.844;2024-03-17T01:32:32;3.35;;;1.70;;
49910;SDS011;35803;53.096;5.844;2024-03-17T01:35:18;7.50;;;2.20;;
49910;SDS011;35803;53.096;5.844;2024-03-17T01:38:04;3.78;;;2.35;;
49910;SDS011;35803;53.096;5.844;2024-03-17T01:40:49;6.88;;;2.70;;
49910;SDS011;35803;53.096;5.844;2024-03-17T01:43:35;8.48;;;3.00;;
49910;SDS011;35803;53.096;5.844;2024-03-17T01:46:21;6.68;;;3.47;;
49910;SDS011;35803;53.096;5.844;2024-03-17T01:49:06;7.18;;;3.30;;
49910;SDS011;35803;53.096;5.844;2024-03-17T01:51:53;6.43;;;2.75;;
49910;SDS011;35803;53.096;5.844;2024-03-17T01:54:39;8.20;;;3.00;;
49910;SDS011;35803;53.096;5.844;2024-03-17T01:57:26;12.15;;;3.40;;
49910;SDS011;35803;53.096;5.844;2024-03-17T02:00:12;6.57;;;3.20;;
49910;SDS011;35803;53.096;5.844;2024-03-17T02:02:59;7.88;;;3.22;;
49910;SDS011;35803;53.096;5.844;2024-03-17T02:05:45;8.50;;;3.42;;
49910;SDS011;35803;53.096;5.844;2024-03-17T02:08:45;5.68;;;3.08;;
49910;SDS011;35803;53.096;5.844;2024-03-17T02:11:38;7.47;;;3.33;;
49910;SDS011;35803;53.096;5.844;2024-03-17T02:14:24;7.55;;;3.55;;
49910;SDS011;35803;53.096;5.844;2024-03-17T02:17:09;8.02;;;3.50;;
49910;SDS011;35803;53.096;5.844;2024-03-17T02:19:56;13.70;;;3.13;;
49910;SDS011;35803;53.096;5.844;2024-03-17T02:22:42;12.50;;;3.88;;
49910;SDS011;35803;53.096;5.844;2024-03-17T02:25:27;7.55;;;3.42;;
49910;SDS011;35803;53.096;5.844;2024-03-17T02:28:13;5.85;;;2.95;;
49910;SDS011;35803;53.096;5.844;2024-03-17T02:30:59;6.63;;;3.00;;
49910;SDS011;35803;53.096;5.844;2024-03-17T02:33:45;5.50;;;2.63;;
49910;SDS011;35803;53.096;5.844;2024-03-17T02:36:31;6.38;;;2.97;;
49910;SDS011;35803;53.096;5.844;2024-03-17T02:39:17;5.95;;;2.90;;
49910;SDS011;35803;53.096;5.844;2024-03-17T02:42:19;10.20;;;2.63;;
49910;SDS011;35803;53.096;5.844;2024-03-17T02:45:05;4.03;;;2.60;;
49910;SDS011;35803;53.096;5.844;2024-03-17T02:47:51;5.82;;;2.60;;
49910;SDS011;35803;53.096;5.844;2024-03-17T02:50:37;7.32;;;2.40;;
49910;SDS011;35803;53.096;5.844;2024-03-17T02:53:23;8.52;;;2.78;;
49910;SDS011;35803;53.096;5.844;2024-03-17T02:56:09;4.97;;;2.10;;
49910;SDS011;35803;53.096;5.844;2024-03-17T02:58:56;6.70;;;2.30;;
49910;SDS011;35803;53.096;5.844;2024-03-17T03:01:42;4.30;;;2.45;;
49910;SDS011;35803;53.096;5.844;2024-03-17T03:04:28;5.28;;;2.45;;
49910;SDS011;35803;53.096;5.844;2024-03-17T03:07:13;5.13;;;2.40;;
49910;SDS011;35803;53.096;5.844;2024-03-17T03:09:59;4.38;;;2.28;;
49910;SDS011;35803;53.096;5.844;2024-03-17T03:12:45;8.38;;;3.00;;
49910;SDS011;35803;53.096;5.844;2024-03-17T03:15:31;6.20;;;2.75;;
49910;SDS011;35803;53.096;5.844;2024-03-17T03:18:18;6.47;;;2.35;;
49910;SDS011;35803;53.096;5.844;2024-03-17T03:21:03;5.88;;;2.67;;
49910;SDS011;35803;53.096;5.844;2024-03-17T03:23:49;7.30;;;2.38;;
49910;SDS011;35803;53.096;5.844;2024-03-17T03:26:35;5.10;;;2.28;;
49910;SDS011;35803;53.096;5.844;2024-03-17T03:29:21;6.05;;;2.30;;
49910;SDS011;35803;53.096;5.844;2024-03-17T03:32:07;7.05;;;2.13;;
49910;SDS011;35803;53.096;5.844;2024-03-17T03:34:53;8.15;;;2.63;;
49910;SDS011;35803;53.096;5.844;2024-03-17T03:37:38;6.68;;;2.50;;
49910;SDS011;35803;53.096;5.844;2024-03-17T03:40:25;4.93;;;2.55;;
49910;SDS011;35803;53.096;5.844;2024-03-17T03:43:12;5.28;;;2.42;;
49910;SDS011;35803;53.096;5.844;2024-03-17T03:45:59;5.63;;;2.22;;
49910;SDS011;35803;53.096;5.844;2024-03-17T03:48:45;6.18;;;2.63;;
49910;SDS011;35803;53.096;5.844;2024-03-17T03:51:31;6.70;;;2.65;;
49910;SDS011;35803;53.096;5.844;2024-03-17T03:54:17;5.95;;;2.90;;
49910;SDS011;35803;53.096;5.844;2024-03-17T03:57:02;8.00;;;2.95;;
49910;SDS011;35803;53.096;5.844;2024-03-17T03:59:48;5.45;;;2.53;;
49910;SDS011;35803;53.096;5.844;2024-03-17T04:02:34;7.90;;;2.88;;
49910;SDS011;35803;53.096;5.844;2024-03-17T04:05:19;7.25;;;2.50;;
49910;SDS011;35803;53.096;5.844;2024-03-17T04:08:05;3.67;;;2.40;;
49910;SDS011;35803;53.096;5.844;2024-03-17T04:10:51;5.63;;;2.47;;
49910;SDS011;35803;53.096;5.844;2024-03-17T04:13:37;4.03;;;2.28;;
49910;SDS011;35803;53.096;5.844;2024-03-17T04:16:22;5.13;;;2.15;;
49910;SDS011;35803;53.096;5.844;2024-03-17T04:19:08;4.43;;;2.25;;
49910;SDS011;35803;53.096;5.844;2024-03-17T04:21:54;3.47;;;2.20;;
49910;SDS011;35803;53.096;5.844;2024-03-17T04:24:40;5.95;;;2.47;;
49910;SDS011;35803;53.096;5.844;2024-03-17T04:27:26;3.75;;;2.10;;
49910;SDS011;35803;53.096;5.844;2024-03-17T04:30:12;6.00;;;2.35;;
49910;SDS011;35803;53.096;5.844;2024-03-17T04:32:57;6.15;;;1.90;;
49910;SDS011;35803;53.096;5.844;2024-03-17T04:35:43;5.00;;;1.92;;
49910;SDS011;35803;53.096;5.844;2024-03-17T04:38:29;9.38;;;2.20;;
49910;SDS011;35803;53.096;5.844;2024-03-17T04:41:16;6.53;;;2.10;;
49910;SDS011;35803;53.096;5.844;2024-03-17T04:44:02;5.13;;;2.00;;
49910;SDS011;35803;53.096;5.844;2024-03-17T04:46:51;3.05;;;1.90;;
49910;SDS011;35803;53.096;5.844;2024-03-17T04:49:40;3.30;;;2.00;;
49910;SDS011;35803;53.096;5.844;2024-03-17T04:52:26;5.72;;;2.20;;
49910;SDS011;35803;53.096;5.844;2024-03-17T04:55:12;4.20;;;1.60;;
49910;SDS011;35803;53.096;5.844;2024-03-17T04:57:57;4.55;;;1.73;;
49910;SDS011;35803;53.096;5.844;2024-03-17T05:00:43;4.80;;;1.77;;
49910;SDS011;35803;53.096;5.844;2024-03-17T05:03:29;3.20;;;1.80;;
49910;SDS011;35803;53.096;5.844;2024-03-17T05:06:15;4.13;;;2.13;;
49910;SDS011;35803;53.096;5.844;2024-03-17T05:09:00;4.82;;;1.65;;
49910;SDS011;35803;53.096;5.844;2024-03-17T05:11:46;5.10;;;1.98;;
49910;SDS011;35803;53.096;5.844;2024-03-17T05:14:32;5.20;;;1.75;;
49910;SDS011;35803;53.096;5.844;2024-03-17T05:17:18;4.72;;;1.83;;
49910;SDS011;35803;53.096;5.844;2024-03-17T05:20:04;7.15;;;2.28;;
49910;SDS011;35803;53.096;5.844;2024-03-17T05:22:51;4.45;;;1.90;;
49910;SDS011;35803;53.096;5.844;2024-03-17T05:25:36;3.90;;;2.00;;
49910;SDS011;35803;53.096;5.844;2024-03-17T05:28:23;6.95;;;1.98;;
49910;SDS011;35803;53.096;5.844;2024-03-17T05:31:09;6.05;;;1.80;;
49910;SDS011;35803;53.096;5.844;2024-03-17T05:33:55;4.28;;;1.95;;
49910;SDS011;35803;53.096;5.844;2024-03-17T05:36:41;3.08;;;1.80;;
49910;SDS011;35803;53.096;5.844;2024-03-17T05:39:27;5.90;;;2.38;;
49910;SDS011;35803;53.096;5.844;2024-03-17T05:42:13;5.60;;;2.38;;
49910;SDS011;35803;53.096;5.844;2024-03-17T05:44:58;5.80;;;2.00;;
49910;SDS011;35803;53.096;5.844;2024-03-17T05:47:44;5.90;;;2.08;;
49910;SDS011;35803;53.096;5.844;2024-03-17T05:50:30;5.47;;;2.13;;
49910;SDS011;35803;53.096;5.844;2024-03-17T05:53:15;4.15;;;1.98;;
49910;SDS011;35803;53.096;5.844;2024-03-17T05:56:02;4.30;;;1.98;;
49910;SDS011;35803;53.096;5.844;2024-03-17T05:58:48;7.00;;;1.77;;
49910;SDS011;35803;53.096;5.844;2024-03-17T06:01:34;7.38;;;2.03;;
49910;SDS011;35803;53.096;5.844;2024-03-17T06:04:21;5.57;;;2.05;;
49910;SDS011;35803;53.096;5.844;2024-03-17T06:07:07;6.50;;;2.45;;
49910;SDS011;35803;53.096;5.844;2024-03-17T06:09:53;8.25;;;2.00;;
49910;SDS011;35803;53.096;5.844;2024-03-17T06:12:39;7.55;;;1.70;;
49910;SDS011;35803;53.096;5.844;2024-03-17T06:15:25;6.47;;;2.15;;
49910;SDS011;35803;53.096;5.844;2024-03-17T06:18:12;4.32;;;2.00;;
49910;SDS011;35803;53.096;5.844;2024-03-17T06:20:59;5.93;;;2.20;;
49910;SDS011;35803;53.096;5.844;2024-03-17T06:23:45;5.65;;;2.60;;
49910;SDS011;35803;53.096;5.844;2024-03-17T06:26:31;3.95;;;2.05;;
49910;SDS011;35803;53.096;5.844;2024-03-17T06:29:18;6.20;;;2.30;;
49910;SDS011;35803;53.096;5.844;2024-03-17T06:32:04;4.65;;;2.17;;
49910;SDS011;35803;53.096;5.844;2024-03-17T06:34:50;5.53;;;2.50;;
49910;SDS011;35803;53.096;5.844;2024-03-17T06:37:36;8.00;;;2.80;;
49910;SDS011;35803;53.096;5.844;2024-03-17T06:40:21;8.27;;;2.78;;
49910;SDS011;35803;53.096;5.844;2024-03-17T06:43:07;8.02;;;3.00;;
49910;SDS011;35803;53.096;5.844;2024-03-17T06:45:59;6.97;;;2.60;;
49910;SDS011;35803;53.096;5.844;2024-03-17T06:48:45;5.13;;;2.78;;
49910;SDS011;35803;53.096;5.844;2024-03-17T06:51:31;5.85;;;2.70;;
49910;SDS011;35803;53.096;5.844;2024-03-17T06:54:17;6.68;;;2.75;;
49910;SDS011;35803;53.096;5.844;2024-03-17T06:57:03;8.55;;;2.85;;
49910;SDS011;35803;53.096;5.844;2024-03-17T06:59:48;6.25;;;2.95;;
49910;SDS011;35803;53.096;5.844;2024-03-17T07:02:34;6.40;;;2.65;;
49910;SDS011;35803;53.096;5.844;2024-03-17T07:05:21;6.45;;;2.97;;
49910;SDS011;35803;53.096;5.844;2024-03-17T07:08:07;5.38;;;3.22;;
49910;SDS011;35803;53.096;5.844;2024-03-17T07:11:02;7.25;;;3.13;;
49910;SDS011;35803;53.096;5.844;2024-03-17T07:13:49;8.45;;;3.22;;
49910;SDS011;35803;53.096;5.844;2024-03-17T07:16:36;5.53;;;3.10;;
49910;SDS011;35803;53.096;5.844;2024-03-17T07:19:22;5.60;;;3.10;;
49910;SDS011;35803;53.096;5.844;2024-03-17T07:22:07;9.15;;;3.80;;
49910;SDS011;35803;53.096;5.844;2024-03-17T07:24:53;9.38;;;3.53;;
49910;SDS011;35803;53.096;5.844;2024-03-17T07:27:45;7.53;;;3.38;;
49910;SDS011;35803;53.096;5.844;2024-03-17T07:30:31;7.22;;;3.33;;
49910;SDS011;35803;53.096;5.844;2024-03-17T07:33:17;5.68;;;3.35;;
49910;SDS011;35803;53.096;5.844;2024-03-17T07:36:05;5.47;;;3.20;;
49910;SDS011;35803;53.096;5.844;2024-03-17T07:38:54;6.40;;;3.28;;
49910;SDS011;35803;53.096;5.844;2024-03-17T07:41:39;6.38;;;3.25;;
49910;SDS011;35803;53.096;5.844;2024-03-17T07:44:25;8.55;;;3.60;;
49910;SDS011;35803;53.096;5.844;2024-03-17T07:47:13;5.45;;;3.33;;
49910;SDS011;35803;53.096;5.844;2024-03-17T07:49:59;9.10;;;3.75;;
49910;SDS011;35803;53.096;5.844;2024-03-17T07:52:49;9.13;;;4.00;;
49910;SDS011;35803;53.096;5.844;2024-03-17T07:55:35;6.38;;;3.30;;
49910;SDS011;35803;53.096;5.844;2024-03-17T07:58:20;6.32;;;3.28;;
49910;SDS011;35803;53.096;5.844;2024-03-17T08:01:06;10.88;;;3.97;;
49910;SDS011;35803;53.096;5.844;2024-03-17T08:03:55;7.90;;;4.43;;
49910;SDS011;35803;53.096;5.844;2024-03-17T08:06:41;9.88;;;4.28;;
49910;SDS011;35803;53.096;5.844;2024-03-17T08:09:27;7.50;;;4.05;;
49910;SDS011;35803;53.096;5.844;2024-03-17T08:12:13;8.15;;;3.97;;
49910;SDS011;35803;53.096;5.844;2024-03-17T08:15:00;11.02;;;4.45;;
49910;SDS011;35803;53.096;5.844;2024-03-17T08:17:45;9.00;;;4.30;;
49910;SDS011;35803;53.096;5.844;2024-03-17T08:20:31;10.82;;;4.70;;
49910;SDS011;35803;53.096;5.844;2024-03-17T08:23:17;7.53;;;4.43;;
49910;SDS011;35803;53.096;5.844;2024-03-17T08:26:02;11.23;;;4.55;;
49910;SDS011;35803;53.096;5.844;2024-03-17T08:28:48;8.10;;;4.70;;
49910;SDS011;35803;53.096;5.844;2024-03-17T08:31:34;9.30;;;5.07;;
49910;SDS011;35803;53.096;5.844;2024-03-17T08:34:19;10.02;;;5.55;;
49910;SDS011;35803;53.096;5.844;2024-03-17T08:37:05;10.27;;;5.43;;
49910;SDS011;35803;53.096;5.844;2024-03-17T08:39:51;8.57;;;5.35;;
49910;SDS011;35803;53.096;5.844;2024-03-17T08:42:37;13.48;;;5.90;;
49910;SDS011;35803;53.096;5.844;2024-03-17T08:45:23;12.80;;;5.88;;
49910;SDS011;35803;53.096;5.844;2024-03-17T08:48:09;11.60;;;5.65;;
49910;SDS011;35803;53.096;5.844;2024-03-17T08:50:56;12.07;;;5.97;;
49910;SDS011;35803;53.096;5.844;2024-03-17T08:53:42;10.07;;;5.65;;
49910;SDS011;35803;53.096;5.844;2024-03-17T08:56:27;11.80;;;5.57;;
49910;SDS011;35803;53.096;5.844;2024-03-17T08:59:14;14.00;;;5.88;;
49910;SDS011;35803;53.096;5.844;2024-03-17T09:01:59;11.32;;;5.50;;
49910;SDS011;35803;53.096;5.844;2024-03-17T09:04:45;11.98;;;6.00;;
49910;SDS011;35803;53.096;5.844;2024-03-17T09:07:31;9.30;;;5.50;;
49910;SDS011;35803;53.096;5.844;2024-03-17T09:10:17;13.18;;;6.40;;
49910;SDS011;35803;53.096;5.844;2024-03-17T09:13:02;11.27;;;6.60;;
49910;SDS011;35803;53.096;5.844;2024-03-17T09:15:55;14.05;;;6.90;;
49910;SDS011;35803;53.096;5.844;2024-03-17T09:18:42;14.45;;;6.90;;
49910;SDS011;35803;53.096;5.844;2024-03-17T09:21:28;13.20;;;6.53;;
49910;SDS011;35803;53.096;5.844;2024-03-17T09:24:13;13.57;;;6.93;;
49910;SDS011;35803;53.096;5.844;2024-03-17T09:26:59;12.77;;;6.85;;
49910;SDS011;35803;53.096;5.844;2024-03-17T09:29:48;10.68;;;6.50;;
49910;SDS011;35803;53.096;5.844;2024-03-17T09:32:33;13.55;;;6.57;;
49910;SDS011;35803;53.096;5.844;2024-03-17T09:35:19;11.52;;;6.20;;
49910;SDS011;35803;53.096;5.844;2024-03-17T09:38:05;11.98;;;6.20;;
49910;SDS011;35803;53.096;5.844;2024-03-17T09:40:51;10.55;;;6.43;;
49910;SDS011;35803;53.096;5.844;2024-03-17T09:43:42;13.57;;;6.65;;
49910;SDS011;35803;53.096;5.844;2024-03-17T09:46:29;11.38;;;6.43;;
49910;SDS011;35803;53.096;5.844;2024-03-17T09:49:15;10.55;;;6.30;;
49910;SDS011;35803;53.096;5.844;2024-03-17T09:52:01;10.68;;;5.88;;
49910;SDS011;35803;53.096;5.844;2024-03-17T09:55:09;10.23;;;6.30;;
49910;SDS011;35803;53.096;5.844;2024-03-17T09:57:58;8.25;;;5.35;;
49910;SDS011;35803;53.096;5.844;2024-03-17T10:00:44;9.57;;;5.60;;
49910;SDS011;35803;53.096;5.844;2024-03-17T10:03:39;10.18;;;5.85;;
49910;SDS011;35803;53.096;5.844;2024-03-17T10:06:34;9.18;;;6.15;;
49910;SDS011;35803;53.096;5.844;2024-03-17T10:09:30;9.23;;;6.28;;
49910;SDS011;35803;53.096;5.844;2024-03-17T10:12:27;15.65;;;7.55;;
49910;SDS011;35803;53.096;5.844;2024-03-17T10:15:13;11.18;;;6.15;;
49910;SDS011;35803;53.096;5.844;2024-03-17T10:17:59;9.95;;;6.05;;
49910;SDS011;35803;53.096;5.844;2024-03-17T10:20:45;9.93;;;5.35;;
49910;SDS011;35803;53.096;5.844;2024-03-17T10:23:31;7.55;;;5.00;;
49910;SDS011;35803;53.096;5.844;2024-03-17T10:26:18;11.57;;;6.03;;
49910;SDS011;35803;53.096;5.844;2024-03-17T10:29:04;9.73;;;6.15;;
49910;SDS011;35803;53.096;5.844;2024-03-17T10:31:59;8.88;;;5.50;;
49910;SDS011;35803;53.096;5.844;2024-03-17T10:34:47;8.50;;;5.82;;
49910;SDS011;35803;53.096;5.844;2024-03-17T10:37:33;8.20;;;5.55;;
49910;SDS011;35803;53.096;5.844;2024-03-17T10:40:19;8.27;;;4.97;;
49910;SDS011;35803;53.096;5.844;2024-03-17T10:43:05;8.30;;;5.28;;
49910;SDS011;35803;53.096;5.844;2024-03-17T10:45:52;8.98;;;5.10;;
49910;SDS011;35803;53.096;5.844;2024-03-17T10:48:39;8.85;;;5.28;;
49910;SDS011;35803;53.096;5.844;2024-03-17T10:51:27;10.65;;;5.80;;
49910;SDS011;35803;53.096;5.844;2024-03-17T10:54:17;10.02;;;5.13;;
49910;SDS011;35803;53.096;5.844;2024-03-17T11:00:13;8.68;;;5.50;;
49910;SDS011;35803;53.096;5.844;2024-03-17T11:03:03;9.50;;;5.10;;
49910;SDS011;35803;53.096;5.844;2024-03-17T11:05:50;10.48;;;5.35;;
49910;SDS011;35803;53.096;5.844;2024-03-17T11:08:36;10.10;;;5.65;;
49910;SDS011;35803;53.096;5.844;2024-03-17T11:11:35;8.98;;;5.30;;
49910;SDS011;35803;53.096;5.844;2024-03-17T11:14:23;8.43;;;5.57;;
49910;SDS011;35803;53.096;5.844;2024-03-17T11:17:18;10.00;;;4.97;;
49910;SDS011;35803;53.096;5.844;2024-03-17T11:20:13;8.75;;;5.10;;
49910;SDS011;35803;53.096;5.844;2024-03-17T11:23:00;10.68;;;4.97;;
49910;SDS011;35803;53.096;5.844;2024-03-17T11:25:51;7.00;;;5.35;;
49910;SDS011;35803;53.096;5.844;2024-03-17T11:28:44;9.40;;;5.20;;
49910;SDS011;35803;53.096;5.844;2024-03-17T11:31:39;8.40;;;5.07;;
49910;SDS011;35803;53.096;5.844;2024-03-17T11:34:32;8.88;;;4.80;;
49910;SDS011;35803;53.096;5.844;2024-03-17T11:37:42;9.15;;;5.80;;
49910;SDS011;35803;53.096;5.844;2024-03-17T11:40:27;7.90;;;5.45;;
49910;SDS011;35803;53.096;5.844;2024-03-17T11:43:16;8.38;;;5.70;;
49910;SDS011;35803;53.096;5.844;2024-03-17T11:46:02;10.35;;;5.88;;
49910;SDS011;35803;53.096;5.844;2024-03-17T11:48:49;9.05;;;5.57;;
49910;SDS011;35803;53.096;5.844;2024-03-17T11:51:35;13.07;;;6.13;;
49910;SDS011;35803;53.096;5.844;2024-03-17T11:54:26;8.23;;;5.70;;
49910;SDS011;35803;53.096;5.844;2024-03-17T11:57:22;11.73;;;6.20;;
49910;SDS011;35803;53.096;5.844;2024-03-17T12:00:18;10.73;;;5.80;;
49910;SDS011;35803;53.096;5.844;2024-03-17T12:03:05;9.82;;;5.65;;
49910;SDS011;35803;53.096;5.844;2024-03-17T12:05:55;10.57;;;5.80;;
49910;SDS011;35803;53.096;5.844;2024-03-17T12:08:40;10.80;;;6.00;;
49910;SDS011;35803;53.096;5.844;2024-03-17T12:11:26;10.43;;;6.10;;
49910;SDS011;35803;53.096;5.844;2024-03-17T12:14:14;9.35;;;5.85;;
49910;SDS011;35803;53.096;5.844;2024-03-17T12:17:01;9.23;;;6.38;;
49910;SDS011;35803;53.096;5.844;2024-03-17T12:19:48;11.15;;;5.43;;
49910;SDS011;35803;53.096;5.844;2024-03-17T12:22:34;7.97;;;5.75;;
49910;SDS011;35803;53.096;5.844;2024-03-17T12:25:22;8.90;;;5.50;;
49910;SDS011;35803;53.096;5.844;2024-03-17T12:28:14;7.40;;;5.50;;
49910;SDS011;35803;53.096;5.844;2024-03-17T12:31:01;6.53;;;5.32;;
49910;SDS011;35803;53.096;5.844;2024-03-17T12:33:47;7.97;;;5.45;;
49910;SDS011;35803;53.096;5.844;2024-03-17T12:36:33;6.50;;;4.95;;
49910;SDS011;35803;53.096;5.844;2024-03-17T12:39:19;7.22;;;5.30;;
49910;SDS011;35803;53.096;5.844;2024-03-17T12:42:09;9.00;;;5.20;;
49910;SDS011;35803;53.096;5.844;2024-03-17T12:45:00;7.70;;;4.70;;
49910;SDS011;35803;53.096;5.844;2024-03-17T12:47:51;8.45;;;5.03;;
49910;SDS011;35803;53.096;5.844;2024-03-17T12:50:43;9.93;;;5.88;;
49910;SDS011;35803;53.096;5.844;2024-03-17T12:53:30;6.97;;;5.20;;
49910;SDS011;35803;53.096;5.844;2024-03-17T12:56:22;6.75;;;5.18;;
49910;SDS011;35803;53.096;5.844;2024-03-17T12:59:36;6.78;;;4.80;;
49910;SDS011;35803;53.096;5.844;2024-03-17T13:05:27;7.90;;;4.78;;
49910;SDS011;35803;53.096;5.844;2024-03-17T13:08:13;7.95;;;5.63;;
49910;SDS011;35803;53.096;5.844;2024-03-17T13:10:59;7.47;;;5.07;;
49910;SDS011;35803;53.096;5.844;2024-03-17T13:13:45;8.27;;;5.72;;
49910;SDS011;35803;53.096;5.844;2024-03-17T13:16:31;7.70;;;5.35;;
49910;SDS011;35803;53.096;5.844;2024-03-17T13:19:17;8.68;;;5.80;;
49910;SDS011;35803;53.096;5.844;2024-03-17T13:22:03;9.30;;;5.38;;
49910;SDS011;35803;53.096;5.844;2024-03-17T13:24:48;10.18;;;6.20;;
49910;SDS011;35803;53.096;5.844;2024-03-17T13:27:34;9.55;;;6.05;;
49910;SDS011;35803;53.096;5.844;2024-03-17T13:30:20;9.85;;;5.75;;
49910;SDS011;35803;53.096;5.844;2024-03-17T13:33:12;8.23;;;5.50;;
49910;SDS011;35803;53.096;5.844;2024-03-17T13:35:58;12.27;;;6.00;;
49910;SDS011;35803;53.096;5.844;2024-03-17T13:38:44;9.02;;;6.18;;
49910;SDS011;35803;53.096;5.844;2024-03-17T13:41:30;8.25;;;5.65;;
49910;SDS011;35803;53.096;5.844;2024-03-17T13:44:15;8.82;;;5.82;;
49910;SDS011;35803;53.096;5.844;2024-03-17T13:47:01;8.82;;;6.10;;
49910;SDS011;35803;53.096;5.844;2024-03-17T13:49:47;7.18;;;5.18;;
49910;SDS011;35803;53.096;5.844;2024-03-17T13:52:32;8.25;;;5.78;;
49910;SDS011;35803;53.096;5.844;2024-03-17T13:55:19;11.18;;;6.20;;
49910;SDS011;35803;53.096;5.844;2024-03-17T13:58:05;8.27;;;5.47;;
49910;SDS011;35803;53.096;5.844;2024-03-17T14:00:51;11.07;;;5.75;;
49910;SDS011;35803;53.096;5.844;2024-03-17T14:03:38;9.88;;;6.00;;
49910;SDS011;35803;53.096;5.844;2024-03-17T14:06:24;9.82;;;6.50;;
49910;SDS011;35803;53.096;5.844;2024-03-17T14:09:10;10.95;;;6.25;;
49910;SDS011;35803;53.096;5.844;2024-03-17T14:11:55;8.85;;;5.78;;
49910;SDS011;35803;53.096;5.844;2024-03-17T14:14:42;9.15;;;5.93;;
49910;SDS011;35803;53.096;5.844;2024-03-17T14:17:29;10.13;;;6.38;;
49910;SDS011;35803;53.096;5.844;2024-03-17T14:20:14;9.30;;;6.18;;
49910;SDS011;35803;53.096;5.844;2024-03-17T14:23:03;11.15;;;6.50;;
49910;SDS011;35803;53.096;5.844;2024-03-17T14:25:49;8.98;;;6.38;;
49910;SDS011;35803;53.096;5.844;2024-03-17T14:28:34;8.80;;;6.07;;
49910;SDS011;35803;53.096;5.844;2024-03-17T14:31:21;10.30;;;5.75;;
49910;SDS011;35803;53.096;5.844;2024-03-17T14:34:07;11.60;;;6.60;;
49910;SDS011;35803;53.096;5.844;2024-03-17T14:36:53;10.55;;;6.85;;
49910;SDS011;35803;53.096;5.844;2024-03-17T14:39:38;10.88;;;6.72;;
49910;SDS011;35803;53.096;5.844;2024-03-17T14:42:25;10.73;;;6.20;;
49910;SDS011;35803;53.096;5.844;2024-03-17T14:45:11;9.60;;;6.25;;
49910;SDS011;35803;53.096;5.844;2024-03-17T14:47:56;10.63;;;6.82;;
49910;SDS011;35803;53.096;5.844;2024-03-17T14:50:42;8.88;;;6.28;;
49910;SDS011;35803;53.096;5.844;2024-03-17T14:53:28;10.68;;;6.53;;
49910;SDS011;35803;53.096;5.844;2024-03-17T14:56:17;9.68;;;6.15;;
49910;SDS011;35803;53.096;5.844;2024-03-17T14:59:03;10.55;;;6.40;;
49910;SDS011;35803;53.096;5.844;2024-03-17T15:01:48;10.38;;;6.07;;
49910;SDS011;35803;53.096;5.844;2024-03-17T15:04:34;9.10;;;5.80;;
49910;SDS011;35803;53.096;5.844;2024-03-17T15:07:20;9.98;;;6.30;;
49910;SDS011;35803;53.096;5.844;2024-03-17T15:10:09;10.77;;;6.68;;
49910;SDS011;35803;53.096;5.844;2024-03-17T15:12:54;9.27;;;5.97;;
49910;SDS011;35803;53.096;5.844;2024-03-17T15:15:40;12.52;;;5.82;;
49910;SDS011;35803;53.096;5.844;2024-03-17T15:18:26;11.73;;;6.35;;
49910;SDS011;35803;53.096;5.844;2024-03-17T15:21:11;9.38;;;5.78;;
49910;SDS011;35803;53.096;5.844;2024-03-17T15:23:58;8.15;;;6.15;;
49910;SDS011;35803;53.096;5.844;2024-03-17T15:26:44;9.75;;;6.13;;
49910;SDS011;35803;53.096;5.844;2024-03-17T15:29:30;8.98;;;5.85;;
49910;SDS011;35803;53.096;5.844;2024-03-17T15:32:16;9.38;;;5.63;;
49910;SDS011;35803;53.096;5.844;2024-03-17T15:35:02;9.70;;;5.90;;
49910;SDS011;35803;53.096;5.844;2024-03-17T15:37:48;9.98;;;6.20;;
49910;SDS011;35803;53.096;5.844;2024-03-17T15:40:33;9.55;;;6.18;;
49910;SDS011;35803;53.096;5.844;2024-03-17T15:43:20;8.13;;;5.93;;
49910;SDS011;35803;53.096;5.844;2024-03-17T15:46:06;7.20;;;5.40;;
49910;SDS011;35803;53.096;5.844;2024-03-17T15:48:55;11.02;;;6.47;;
49910;SDS011;35803;53.096;5.844;2024-03-17T15:51:43;10.60;;;6.55;;
49910;SDS011;35803;53.096;5.844;2024-03-17T15:54:29;9.93;;;5.90;;
49910;SDS011;35803;53.096;5.844;2024-03-17T15:57:15;10.45;;;5.82;;
49910;SDS011;35803;53.096;5.844;2024-03-17T16:00:00;9.23;;;5.45;;
49910;SDS011;35803;53.096;5.844;2024-03-17T16:02:46;8.85;;;6.00;;
49910;SDS011;35803;53.096;5.844;2024-03-17T16:05:32;8.18;;;5.35;;
49910;SDS011;35803;53.096;5.844;2024-03-17T16:08:18;10.25;;;5.75;;
49910;SDS011;35803;53.096;5.844;2024-03-17T16:11:07;9.88;;;5.70;;
49910;SDS011;35803;53.096;5.844;2024-03-17T16:14:00;10.83;;;6.40;;
49910;SDS011;35803;53.096;5.844;2024-03-17T16:16:46;9.73;;;6.38;;
49910;SDS011;35803;53.096;5.844;2024-03-17T16:19:32;9.50;;;6.22;;
49910;SDS011;35803;53.096;5.844;2024-03-17T16:22:18;8.55;;;5.90;;
49910;SDS011;35803;53.096;5.844;2024-03-17T16:25:04;8.23;;;5.30;;
49910;SDS011;35803;53.096;5.844;2024-03-17T16:27:50;9.10;;;6.00;;
49910;SDS011;35803;53.096;5.844;2024-03-17T16:30:37;8.90;;;6.10;;
49910;SDS011;35803;53.096;5.844;2024-03-17T16:33:23;10.45;;;5.95;;
49910;SDS011;35803;53.096;5.844;2024-03-17T16:36:10;9.55;;;6.10;;
49910;SDS011;35803;53.096;5.844;2024-03-17T16:38:56;8.75;;;5.80;;
49910;SDS011;35803;53.096;5.844;2024-03-17T16:41:43;11.90;;;6.35;;
49910;SDS011;35803;53.096;5.844;2024-03-17T16:47:27;8.55;;;5.95;;
49910;SDS011;35803;53.096;5.844;2024-03-17T16:50:14;8.25;;;5.60;;
49910;SDS011;35803;53.096;5.844;2024-03-17T16:53:00;10.38;;;6.22;;